createdAt,value
2022-11-07T00:01:18.397Z,77.88
2022-11-07T00:03:45.650Z,77.64
2022-11-07T00:06:12.799Z,77.63
2022-11-07T00:08:39.950Z,77.76
2022-11-07T00:11:07.329Z,77.50
2022-11-07T00:13:34.283Z,77.42
2022-11-07T00:16:06.980Z,77.44
2022-11-07T00:18:34.401Z,77.22
2022-11-07T00:21:02.764Z,77.46
2022-11-07T00:23:29.978Z,77.69
2022-11-07T00:26:09.295Z,77.46
2022-11-07T00:28:37.890Z,77.71
2022-11-07T00:31:06.349Z,78.05
2022-11-07T00:33:33.771Z,78.39
2022-11-07T00:36:01.032Z,78.34
2022-11-07T00:38:28.127Z,78.39
2022-11-07T00:41:03.362Z,78.23
2022-11-07T00:43:31.032Z,78.17
2022-11-07T00:46:01.101Z,78.02
2022-11-07T00:48:28.419Z,77.50
2022-11-07T00:50:55.293Z,77.71
2022-11-07T00:53:22.595Z,77.41
2022-11-07T00:55:49.570Z,77.14
2022-11-07T00:58:17.582Z,76.57
2022-11-07T01:00:45.121Z,76.46
2022-11-07T01:03:30.655Z,76.48
2022-11-07T01:05:59.656Z,76.43
2022-11-07T01:08:27.466Z,76.53
2022-11-07T01:10:54.928Z,76.48
2022-11-07T01:13:22.025Z,76.54
2022-11-07T01:15:49.020Z,76.45
2022-11-07T01:18:15.974Z,76.48
2022-11-07T01:20:43.324Z,76.22
2022-11-07T01:23:10.262Z,76.14
2022-11-07T01:25:38.230Z,76.52
2022-11-07T01:28:07.085Z,76.54
2022-11-07T01:30:34.223Z,76.62
2022-11-07T01:33:01.319Z,76.36
2022-11-07T01:35:28.217Z,75.59
2022-11-07T01:37:55.216Z,75.51
2022-11-07T01:40:22.057Z,75.31
2022-11-07T01:42:49.016Z,75.02
2022-11-07T01:45:28.354Z,74.63
2022-11-07T01:47:59.029Z,75.21
2022-11-07T01:50:26.783Z,75.84
2022-11-07T01:52:55.576Z,75.70
2022-11-07T01:55:31.590Z,75.34
2022-11-07T01:58:05.796Z,75.61
2022-11-07T02:00:33.768Z,75.11
2022-11-07T02:03:09.768Z,75.32
2022-11-07T02:05:42.764Z,75.72
2022-11-07T02:08:11.945Z,75.48
2022-11-07T02:10:40.863Z,75.49
2022-11-07T02:13:07.775Z,75.38
2022-11-07T02:15:36.654Z,75.37
2022-11-07T02:18:03.732Z,75.20
2022-11-07T02:20:30.598Z,75.42
2022-11-07T02:23:01.112Z,75.78
2022-11-07T02:25:29.835Z,75.09
2022-11-07T02:28:00.171Z,75.36
2022-11-07T02:30:33.968Z,75.23
2022-11-07T02:33:01.999Z,75.32
2022-11-07T02:35:42.481Z,76.05
2022-11-07T02:38:23.061Z,76.34
2022-11-07T02:40:52.804Z,76.53
2022-11-07T02:43:23.036Z,76.37
2022-11-07T02:45:51.373Z,76.22
2022-11-07T02:48:18.613Z,76.66
2022-11-07T02:50:46.541Z,76.28
2022-11-07T02:53:13.647Z,75.99
2022-11-07T02:55:40.781Z,76.56
2022-11-07T02:58:07.599Z,76.43
2022-11-07T03:00:34.434Z,76.58
2022-11-07T03:03:01.193Z,76.12
2022-11-07T03:25:58.602Z,79.15
2022-11-07T03:28:25.409Z,78.52
2022-11-07T03:30:52.514Z,77.73
2022-11-07T03:33:19.356Z,77.72
2022-11-07T03:35:46.486Z,76.97
2022-11-07T03:38:13.241Z,76.25
2022-11-07T03:40:40.188Z,75.90
2022-11-07T03:43:07.009Z,75.52
2022-11-07T03:45:33.806Z,76.15
2022-11-07T03:48:00.601Z,75.79
2022-11-07T03:50:27.398Z,75.68
2022-11-07T03:52:54.362Z,75.55
2022-11-07T03:55:21.222Z,75.17
2022-11-07T03:57:48.416Z,75.32
2022-11-07T04:00:16.284Z,75.46
2022-11-07T04:02:43.878Z,75.84
2022-11-07T04:05:12.312Z,75.44
2022-11-07T04:07:39.103Z,74.77
2022-11-07T04:10:06.344Z,75.19
2022-11-07T04:12:51.878Z,75.44
2022-11-07T04:15:37.120Z,75.88
2022-11-07T04:18:04.118Z,76.13
2022-11-07T04:20:31.178Z,76.18
2022-11-07T04:22:58.129Z,76.04
2022-11-07T04:25:45.061Z,75.77
2022-11-07T04:28:11.965Z,75.75
2022-11-07T04:30:38.908Z,75.71
2022-11-07T04:33:06.070Z,75.73
2022-11-07T04:35:33.721Z,75.55
2022-11-07T04:38:01.393Z,75.32
2022-11-07T04:40:29.820Z,75.45
2022-11-07T04:42:57.225Z,75.12
2022-11-07T04:45:24.492Z,75.51
2022-11-07T04:47:51.424Z,75.42
2022-11-07T04:50:19.811Z,75.32
2022-11-07T04:52:47.665Z,74.83
2022-11-07T04:55:24.326Z,75.29
2022-11-07T04:57:52.351Z,75.60
2022-11-07T05:00:20.226Z,76.15
2022-11-07T05:02:47.571Z,76.11
2022-11-07T05:05:14.590Z,76.68
2022-11-07T05:07:41.520Z,76.29
2022-11-07T05:10:16.253Z,76.59
2022-11-07T05:12:43.167Z,76.17
2022-11-07T05:15:10.146Z,76.46
2022-11-07T05:17:37.096Z,76.46
2022-11-07T05:20:04.361Z,76.44
2022-11-07T05:22:53.700Z,76.82
2022-11-07T05:25:23.218Z,77.79
2022-11-07T05:27:55.478Z,78.06
2022-11-07T05:30:22.537Z,77.98
2022-11-07T05:32:49.508Z,78.07
2022-11-07T05:35:16.428Z,77.95
2022-11-07T05:37:43.318Z,78.14
2022-11-07T05:40:10.940Z,78.17
2022-11-07T05:42:37.875Z,79.18
2022-11-07T05:45:05.354Z,80.06
2022-11-07T05:47:32.210Z,79.73
2022-11-07T05:49:59.120Z,80.11
2022-11-07T05:52:26.118Z,79.90
2022-11-07T05:54:53.230Z,80.04
2022-11-07T05:57:20.174Z,80.02
2022-11-07T05:59:47.112Z,80.29
2022-11-07T06:02:14.351Z,80.40
2022-11-07T06:04:41.187Z,80.37
2022-11-07T06:07:08.148Z,80.03
2022-11-07T06:09:35.105Z,80.30
2022-11-07T06:12:03.887Z,81.01
2022-11-07T06:14:30.753Z,80.88
2022-11-07T06:16:57.615Z,81.39
2022-11-07T06:19:24.585Z,81.79
2022-11-07T06:21:51.567Z,82.16
2022-11-07T06:24:20.147Z,81.94
2022-11-07T06:26:47.164Z,82.15
2022-11-07T06:29:14.049Z,81.95
2022-11-07T06:31:41.038Z,81.89
2022-11-07T06:34:07.976Z,81.94
2022-11-07T06:36:34.926Z,82.20
2022-11-07T06:39:01.829Z,82.25
2022-11-07T06:41:28.933Z,82.14
2022-11-07T06:43:55.820Z,81.55
2022-11-07T06:46:23.439Z,81.14
2022-11-07T06:48:50.314Z,80.50
2022-11-07T06:51:17.301Z,80.16
2022-11-07T06:53:44.254Z,79.38
2022-11-07T06:56:14.500Z,79.46
2022-11-07T06:58:41.717Z,78.83
2022-11-07T07:01:13.401Z,77.98
2022-11-07T07:03:41.106Z,78.07
2022-11-07T07:06:12.267Z,77.62
2022-11-07T07:08:39.551Z,77.61
2022-11-07T07:11:12.699Z,76.17
2022-11-07T07:13:40.149Z,75.97
2022-11-07T07:16:07.805Z,76.04
2022-11-07T07:18:35.582Z,74.75
2022-11-07T07:21:09.707Z,73.71
2022-11-07T07:23:38.698Z,72.77
2022-11-07T07:26:07.676Z,72.51
2022-11-07T07:28:36.566Z,71.08
2022-11-07T07:31:08.639Z,70.77
2022-11-07T07:33:35.828Z,70.61
2022-11-07T07:36:02.834Z,70.79
2022-11-07T07:38:30.092Z,69.63
2022-11-07T07:40:58.781Z,69.35
2022-11-07T07:43:27.196Z,68.46
2022-11-07T07:45:54.045Z,67.84
2022-11-07T07:48:20.940Z,67.28
2022-11-07T07:50:49.828Z,66.42
2022-11-07T07:53:17.239Z,66.16
2022-11-07T07:55:44.606Z,65.19
2022-11-07T07:58:12.820Z,64.15
2022-11-07T08:00:40.834Z,63.29
2022-11-07T08:03:10.614Z,62.06
2022-11-07T08:05:38.818Z,59.79
2022-11-07T08:08:08.040Z,59.45
2022-11-07T08:10:41.905Z,59.08
2022-11-07T08:13:09.539Z,56.96
2022-11-07T08:15:36.530Z,58.07
2022-11-07T08:18:06.245Z,57.86
2022-11-07T08:20:33.184Z,58.54
2022-11-07T08:23:04.926Z,59.50
2022-11-07T08:25:32.126Z,60.49
2022-11-07T08:27:59.549Z,59.94
2022-11-07T08:30:27.184Z,60.89
2022-11-07T08:32:54.729Z,61.11
2022-11-07T08:35:21.624Z,60.99
2022-11-07T08:37:48.532Z,61.21
2022-11-07T08:40:15.364Z,60.62
2022-11-07T08:42:42.286Z,60.42
2022-11-07T08:45:09.600Z,59.87
2022-11-07T08:47:36.569Z,58.02
2022-11-07T08:50:04.203Z,57.15
2022-11-07T08:52:31.316Z,56.38
2022-11-07T08:54:58.225Z,55.86
2022-11-07T08:57:25.253Z,55.09
2022-11-07T08:59:52.169Z,55.71
2022-11-07T09:05:06.165Z,54.54
2022-11-07T09:07:33.101Z,54.91
2022-11-07T09:10:00.115Z,54.69
2022-11-07T09:12:26.995Z,55.09
2022-11-07T09:14:53.794Z,55.66
2022-11-07T09:17:20.633Z,54.26
2022-11-07T09:19:47.586Z,53.72
2022-11-07T09:22:15.052Z,53.28
2022-11-07T09:24:42.002Z,54.26
2022-11-07T09:27:08.935Z,54.26
2022-11-07T09:29:36.225Z,53.98
2022-11-07T09:32:17.509Z,54.25
2022-11-07T09:34:55.932Z,54.08
2022-11-07T09:37:24.096Z,53.84
2022-11-07T09:39:51.361Z,54.06
2022-11-07T09:42:45.506Z,52.52
2022-11-07T09:45:14.082Z,51.66
2022-11-07T09:47:45.628Z,51.77
2022-11-07T09:50:23.410Z,51.58
2022-11-07T09:53:02.083Z,49.60
2022-11-07T09:55:34.118Z,48.29
2022-11-07T09:58:05.284Z,40.74
2022-11-07T10:00:33.954Z,34.49
2022-11-07T10:03:02.578Z,34.86
2022-11-07T10:05:55.937Z,33.04
2022-11-07T10:08:28.018Z,30.36
2022-11-07T10:10:57.560Z,28.37
2022-11-07T10:13:39.782Z,24.37
2022-11-07T10:16:14.409Z,22.53
2022-11-07T10:18:53.259Z,25.48
2022-11-07T10:21:50.422Z,23.98
2022-11-07T10:24:32.788Z,27.51
2022-11-07T10:27:01.260Z,31.92
2022-11-07T10:29:52.484Z,35.79
2022-11-07T10:32:28.448Z,31.72
2022-11-07T10:35:26.342Z,27.50
2022-11-07T10:38:00.784Z,26.72
2022-11-07T10:40:40.577Z,23.56
2022-11-07T10:43:14.844Z,21.25
2022-11-07T10:45:42.455Z,21.92
2022-11-07T10:48:13.426Z,21.96
2022-11-07T10:50:40.438Z,23.87
2022-11-07T10:53:09.806Z,30.59
2022-11-07T10:55:45.805Z,31.65
2022-11-07T10:58:21.599Z,30.50
2022-11-07T11:00:57.669Z,29.35
2022-11-07T11:03:43.169Z,25.56
2022-11-07T11:06:11.158Z,25.09
2022-11-07T11:08:38.923Z,25.19
2022-11-07T11:11:30.033Z,23.22
2022-11-07T11:14:13.946Z,21.34
2022-11-07T11:16:42.483Z,20.02
2022-11-07T11:19:35.166Z,18.40
2022-11-07T11:22:05.961Z,19.98
2022-11-07T11:24:39.720Z,21.69
2022-11-07T11:27:23.426Z,22.83
2022-11-07T11:29:59.908Z,23.33
2022-11-07T11:32:32.652Z,23.77
2022-11-07T11:35:12.190Z,27.04
2022-11-07T11:37:43.019Z,29.84
2022-11-07T11:40:22.473Z,29.83
2022-11-07T11:42:55.789Z,32.45
2022-11-07T11:45:40.782Z,33.30
2022-11-07T11:48:28.866Z,32.11
2022-11-07T11:51:18.996Z,28.49
2022-11-07T11:53:46.003Z,27.02
2022-11-07T11:56:38.851Z,28.90
2022-11-07T11:59:27.421Z,28.99
2022-11-07T12:02:32.100Z,27.46
2022-11-07T12:05:17.708Z,27.83
2022-11-07T12:08:02.579Z,29.52
2022-11-07T12:10:35.831Z,34.92
2022-11-07T12:13:16.369Z,37.77
2022-11-07T12:16:02.238Z,39.54
2022-11-07T12:18:29.232Z,41.17
2022-11-07T12:21:07.640Z,41.96
2022-11-07T12:23:54.064Z,44.29
2022-11-07T12:26:41.921Z,45.61
2022-11-07T12:29:14.723Z,46.22
2022-11-07T12:31:41.553Z,47.39
2022-11-07T12:34:20.618Z,47.51
2022-11-07T12:37:11.945Z,48.35
2022-11-07T12:40:05.464Z,48.73
2022-11-07T12:42:59.781Z,48.37
2022-11-07T12:45:51.270Z,49.19
2022-11-07T12:48:23.994Z,47.61
2022-11-07T12:51:00.718Z,47.96
2022-11-07T12:54:00.056Z,48.46
2022-11-07T12:56:36.338Z,49.57
2022-11-07T12:59:11.185Z,49.58
2022-11-07T13:01:49.937Z,49.48
2022-11-07T13:04:53.770Z,49.56
2022-11-07T13:07:31.086Z,50.53
2022-11-07T13:10:28.923Z,50.41
2022-11-07T13:13:28.128Z,50.73
2022-11-07T13:16:14.476Z,50.39
2022-11-07T13:21:13.691Z,50.95
2022-11-07T13:23:40.787Z,51.36
2022-11-07T13:26:32.577Z,50.21
2022-11-07T13:28:58.377Z,50.13
2022-11-07T13:31:40.434Z,51.18
2022-11-07T13:34:19.618Z,49.96
2022-11-07T13:36:48.373Z,50.67
2022-11-07T13:39:16.028Z,50.29
2022-11-07T13:41:46.798Z,50.48
2022-11-07T13:44:28.377Z,50.83
2022-11-07T13:47:04.517Z,51.37
2022-11-07T13:49:44.215Z,50.87
2022-11-07T13:52:48.724Z,51.18
2022-11-07T13:55:22.405Z,51.65
2022-11-07T13:57:56.489Z,51.99
2022-11-07T14:00:23.733Z,52.09
2022-11-07T14:02:53.534Z,52.74
2022-11-07T14:05:27.119Z,53.06
2022-11-07T14:08:08.294Z,52.39
2022-11-07T14:10:48.795Z,52.65
2022-11-07T14:13:27.413Z,52.64
2022-11-07T14:16:00.823Z,52.85
2022-11-07T14:18:50.090Z,53.45
2022-11-07T14:21:31.929Z,53.63
2022-11-07T14:23:59.241Z,53.88
2022-11-07T14:26:28.244Z,54.38
2022-11-07T14:28:57.022Z,54.40
2022-11-07T14:31:35.951Z,54.94
2022-11-07T14:34:25.672Z,55.18
2022-11-07T14:36:56.096Z,55.67
2022-11-07T14:39:24.757Z,56.01
2022-11-07T14:41:54.602Z,55.97
2022-11-07T14:44:47.710Z,56.20
2022-11-07T14:47:20.182Z,56.76
2022-11-07T14:49:49.852Z,56.74
2022-11-07T14:52:21.759Z,56.88
2022-11-07T14:54:55.290Z,57.23
2022-11-07T14:57:22.412Z,58.09
2022-11-07T14:59:49.568Z,58.18
2022-11-07T15:02:27.204Z,58.26
2022-11-07T15:05:00.958Z,58.48
2022-11-07T15:07:35.426Z,58.59
2022-11-07T15:10:26.222Z,58.86
2022-11-07T15:27:33.582Z,62.37
2022-11-07T15:30:02.209Z,61.72
2022-11-07T15:32:35.649Z,62.10
2022-11-07T15:35:42.435Z,62.23
2022-11-07T15:38:02.263Z,62.01
2022-11-07T15:40:29.971Z,62.23
2022-11-07T15:42:57.068Z,62.36
2022-11-07T15:45:24.134Z,62.57
2022-11-07T15:47:51.630Z,62.95
2022-11-07T15:50:21.994Z,63.99
2022-11-07T15:52:49.719Z,64.51
2022-11-07T15:55:19.526Z,64.88
2022-11-07T15:57:49.236Z,64.47
2022-11-07T16:00:24.998Z,64.88
2022-11-07T16:02:52.342Z,65.02
2022-11-07T16:05:19.508Z,65.67
2022-11-07T16:07:46.858Z,66.36
2022-11-07T16:10:20.885Z,66.43
2022-11-07T16:12:49.054Z,66.28
2022-11-07T16:15:18.044Z,67.50
2022-11-07T16:17:45.028Z,68.04
2022-11-07T16:20:33.511Z,69.34
2022-11-07T16:23:02.475Z,70.29
2022-11-07T16:25:30.558Z,70.16
2022-11-07T16:28:00.709Z,71.33
2022-11-07T16:30:28.211Z,70.66
2022-11-07T16:32:55.333Z,71.29
2022-11-07T16:35:22.472Z,71.68
2022-11-07T16:37:49.878Z,71.90
2022-11-07T16:40:19.741Z,72.48
2022-11-07T16:42:47.731Z,72.95
2022-11-07T16:45:22.551Z,73.06
2022-11-07T16:47:49.476Z,73.36
2022-11-07T16:50:17.613Z,73.31
2022-11-07T16:52:44.511Z,73.90
2022-11-07T16:55:16.687Z,73.66
2022-11-07T16:57:44.507Z,74.38
2022-11-07T17:00:23.313Z,73.75
2022-11-07T17:02:50.668Z,74.18
2022-11-07T17:05:17.746Z,74.43
2022-11-07T17:07:44.657Z,74.53
2022-11-07T17:10:16.817Z,74.85
2022-11-07T17:12:43.929Z,75.09
2022-11-07T17:15:11.153Z,75.49
2022-11-07T17:17:38.203Z,75.82
2022-11-07T17:20:06.792Z,75.27
2022-11-07T17:22:33.747Z,75.30
2022-11-07T17:25:00.590Z,76.09
2022-11-07T17:27:27.562Z,75.27
2022-11-07T17:29:55.434Z,75.89
2022-11-07T17:32:22.323Z,75.96
2022-11-07T17:35:04.658Z,76.89
2022-11-07T17:37:36.888Z,77.25
2022-11-07T17:40:04.960Z,77.06
2022-11-07T17:42:37.538Z,77.08
2022-11-07T17:45:06.022Z,76.61
2022-11-07T17:47:34.535Z,76.93
2022-11-07T17:50:01.827Z,77.51
2022-11-07T17:52:28.648Z,76.46
2022-11-07T17:54:55.514Z,77.33
2022-11-07T17:57:22.731Z,77.81
2022-11-07T17:59:49.632Z,77.08
2022-11-07T18:02:19.126Z,77.43
2022-11-07T18:04:46.900Z,77.64
2022-11-07T18:07:13.896Z,76.90
2022-11-07T18:09:41.414Z,76.90
2022-11-07T18:12:08.977Z,76.94
2022-11-07T18:14:36.213Z,77.01
2022-11-07T18:17:03.096Z,77.60
2022-11-07T18:19:30.205Z,77.38
2022-11-07T18:21:57.053Z,77.51
2022-11-07T18:24:24.368Z,77.99
2022-11-07T18:26:51.826Z,77.64
2022-11-07T18:29:19.527Z,77.82
2022-11-07T18:31:50.658Z,77.10
2022-11-07T18:34:17.600Z,77.30
2022-11-07T18:36:45.472Z,77.58
2022-11-07T18:39:18.403Z,77.06
2022-11-07T18:41:45.734Z,77.22
2022-11-07T18:44:12.928Z,76.60
2022-11-07T18:46:40.483Z,76.66
2022-11-07T18:49:07.652Z,76.00
2022-11-07T18:51:34.882Z,76.57
2022-11-07T18:54:03.664Z,76.98
2022-11-07T18:56:30.844Z,77.04
2022-11-07T18:58:57.790Z,76.99
2022-11-07T19:01:30.880Z,77.43
2022-11-07T19:04:00.445Z,77.43
2022-11-07T19:06:29.643Z,77.55
2022-11-07T19:08:56.585Z,77.85
2022-11-07T19:11:29.450Z,77.37
2022-11-07T19:13:59.966Z,77.96
2022-11-07T19:16:26.751Z,78.90
2022-11-07T19:18:53.689Z,79.12
2022-11-07T19:21:21.727Z,79.70
2022-11-07T19:23:50.083Z,79.48
2022-11-07T19:26:19.270Z,79.75
2022-11-07T19:28:46.913Z,79.75
2022-11-07T19:31:14.144Z,80.16
2022-11-07T19:33:41.908Z,80.22
2022-11-07T19:36:17.052Z,80.39
2022-11-07T19:38:44.770Z,80.73
2022-11-07T19:41:13.569Z,80.32
2022-11-07T19:43:42.678Z,80.28
2022-11-07T19:46:16.192Z,80.15
2022-11-07T19:48:44.130Z,80.89
2022-11-07T19:51:21.518Z,80.60
2022-11-07T19:53:58.288Z,80.56
2022-11-07T19:56:28.001Z,81.00
2022-11-07T19:58:55.287Z,81.47
2022-11-07T20:01:29.779Z,81.28
2022-11-07T20:03:57.467Z,81.30
2022-11-07T20:06:33.095Z,81.38
2022-11-07T20:09:01.552Z,81.73
2022-11-07T20:11:28.389Z,81.64
2022-11-07T20:13:58.786Z,81.78
2022-11-07T20:16:28.782Z,81.70
2022-11-07T20:18:55.675Z,81.74
2022-11-07T20:21:23.555Z,81.97
2022-11-07T20:23:53.776Z,81.83
2022-11-07T20:26:24.577Z,82.25
2022-11-07T20:28:52.263Z,82.56
2022-11-07T20:31:23.026Z,82.55
2022-11-07T20:33:49.953Z,82.75
2022-11-07T20:36:17.825Z,83.44
2022-11-07T20:38:45.233Z,83.02
2022-11-07T20:41:13.666Z,83.23
2022-11-07T20:43:41.543Z,83.33
2022-11-07T20:46:11.298Z,83.52
2022-11-07T20:48:39.011Z,83.50
2022-11-07T20:51:10.818Z,83.65
2022-11-07T20:53:38.683Z,83.96
2022-11-07T20:56:08.138Z,83.53
2022-11-07T20:58:37.647Z,83.80
2022-11-07T21:01:05.925Z,84.16
2022-11-07T21:03:34.599Z,83.94
2022-11-07T21:06:01.648Z,84.12
2022-11-07T21:08:31.886Z,84.33
2022-11-07T21:11:01.401Z,84.05
2022-11-07T21:13:28.257Z,84.35
2022-11-07T21:15:55.058Z,84.28
2022-11-07T21:18:21.976Z,84.48
2022-11-07T21:20:48.835Z,84.59
2022-11-07T21:23:16.732Z,84.54
2022-11-07T21:25:45.803Z,84.51
2022-11-07T21:28:17.502Z,85.04
2022-11-07T21:30:46.135Z,84.31
2022-11-07T21:33:13.315Z,84.21
2022-11-07T21:35:42.376Z,83.70
2022-11-07T21:38:09.240Z,84.21
2022-11-07T21:40:36.689Z,84.64
2022-11-07T21:43:03.620Z,84.81
2022-11-07T21:45:30.563Z,84.37
2022-11-07T21:47:57.404Z,84.84
2022-11-07T21:50:43.501Z,85.21
2022-11-07T21:53:10.787Z,85.44
2022-11-07T21:55:37.713Z,85.62
2022-11-07T21:58:04.670Z,85.83
2022-11-07T22:00:35.886Z,85.93
2022-11-07T22:03:04.154Z,86.42
2022-11-07T22:05:31.119Z,86.63
2022-11-07T22:07:58.073Z,86.69
2022-11-07T22:10:29.703Z,87.06
2022-11-07T22:12:56.624Z,87.08
2022-11-07T22:15:23.518Z,87.67
2022-11-07T22:17:50.480Z,86.93
2022-11-07T22:20:17.429Z,86.47
2022-11-07T22:22:44.250Z,86.16
2022-11-07T22:25:11.190Z,86.46
2022-11-07T22:27:37.986Z,86.66
2022-11-07T22:30:06.105Z,87.05
2022-11-07T22:32:32.960Z,87.63
2022-11-07T22:35:01.682Z,87.29
2022-11-07T22:37:31.859Z,87.70
2022-11-07T22:39:59.360Z,87.92
2022-11-07T22:42:28.582Z,88.62
2022-11-07T22:44:55.483Z,88.68
2022-11-07T22:47:22.278Z,88.93
2022-11-07T22:49:49.135Z,88.24
2022-11-07T22:52:16.007Z,88.23
2022-11-07T22:54:43.265Z,88.65
2022-11-07T22:57:14.097Z,89.24
2022-11-07T22:59:43.629Z,89.11
2022-11-07T23:02:10.509Z,89.31
2022-11-07T23:04:37.435Z,89.01
2022-11-07T23:07:04.429Z,89.67
2022-11-07T23:09:31.423Z,89.62
2022-11-07T23:11:58.319Z,89.55
2022-11-07T23:14:26.295Z,89.54
2022-11-07T23:16:57.939Z,89.23
2022-11-07T23:19:26.962Z,89.32
2022-11-07T23:21:55.272Z,89.65
2022-11-07T23:24:22.824Z,89.21
2022-11-07T23:26:49.773Z,89.24
2022-11-07T23:29:22.977Z,89.27
2022-11-07T23:31:51.519Z,89.93
2022-11-07T23:34:20.393Z,89.74
2022-11-07T23:36:50.316Z,89.99
2022-11-07T23:39:19.860Z,90.44
2022-11-07T23:41:46.944Z,90.82
2022-11-07T23:44:15.142Z,90.24
2022-11-07T23:47:00.728Z,90.47
2022-11-07T23:49:46.026Z,90.59
2022-11-07T23:52:13.202Z,91.26
2022-11-07T23:54:58.705Z,91.20
2022-11-07T23:57:25.640Z,90.90
